Portada
METAR-TAF:

METAR-TAF

Aeroports :

Harding County Airport

Buffalo, Dakota del Sud, Estats Units d'Amèrica

latitud: 45-36-16N, longitud: 103-32-47W, altitud: 915 m

Observació

L'informe es va fer fa 1 hora i 10 minuts, a les 16:56 UTC
Vent 8 kt del Oest
Temperatura 2°C
Humitat 69%
Pressió 1016 hPa

METAR: K2WX 281656Z AUTO 28008KT 02/M03 A2999 RMK AO1 SLP181 T00171033

Hora: 11:06 (18:06 UTC)


TAF: manca

Observacions i pronòstics meteorològics de més de 4000 aeroports (METAR i TAF).

Les estacions disponibles són els punts grocs i vermells al mapa.

Posi el ratolí al punt desitjat per veure el nom de l'estació.

Feu clic per veure les observacions i els pronòstics meteorològics.

Per canviar el mapa: feu clic els botons verds amb una creu de color negre per apropar; al botó verd amb un guió per allunyar la imatge; o en les fletxes verdes per a mapes adjacents.


METAR-TAF: